Time;durP1;ratioP1;P1;durP2;ratioP2;P2;SDS_P1;SDS_P2;PMS_P1;PMS_P2;Temp;Humidity;BMP_temperature;BMP_pressure;BME280_temperature;BME280_humidity;BME280_pressure;Samples;Min_cycle;Max_cycle;Signal;HPM_P1;HPM_P2
2021/05/18 00:00:00;;;;;;;8.90;4.65;;;14.10;73.70;;;;;;5073320;28;20070;-59
2021/05/18 00:02:25;;;;;;;10.68;4.97;;;14.10;73.70;;;;;;5058660;28;20041;-59
2021/05/18 00:04:51;;;;;;;6.40;3.60;;;14.10;73.90;;;;;;5073273;28;20024;-60
2021/05/18 00:07:21;;;;;;;2.55;1.98;;;14.00;73.80;;;;;;5073257;28;20036;-60
2021/05/18 00:12:32;;;;;;;7.78;3.63;;;14.00;73.90;;;;;;5073148;28;20040;-60
2021/05/18 00:14:59;;;;;;;7.68;4.13;;;14.00;74.00;;;;;;5072961;28;20025;-59
2021/05/18 00:17:25;;;;;;;8.75;4.50;;;14.00;74.20;;;;;;5072945;28;20089;-59
2021/05/18 00:19:51;;;;;;;11.68;3.92;;;13.90;74.20;;;;;;5072979;28;20033;-60
2021/05/18 00:22:17;;;;;;;12.20;5.03;;;13.90;74.30;;;;;;5072880;28;20039;-60
2021/05/18 00:24:42;;;;;;;7.50;3.78;;;13.90;74.30;;;;;;5073240;28;20025;-60
2021/05/18 00:27:09;;;;;;;5.95;3.33;;;13.90;74.30;;;;;;5072797;28;20032;-59
2021/05/18 00:29:34;;;;;;;5.50;2.63;;;13.90;74.40;;;;;;5072523;28;20032;-60
2021/05/18 00:32:00;;;;;;;8.38;4.05;;;13.90;74.30;;;;;;5072829;28;20035;-60
2021/05/18 00:34:26;;;;;;;7.22;3.75;;;13.90;74.40;;;;;;5072621;28;20460;-59
2021/05/18 00:36:51;;;;;;;6.72;3.28;;;13.80;74.40;;;;;;5072418;28;20028;-60
2021/05/18 00:39:18;;;;;;;6.53;3.33;;;13.80;74.50;;;;;;5072970;28;20086;-60
2021/05/18 00:41:45;;;;;;;4.35;2.55;;;13.80;74.50;;;;;;5072758;28;20068;-59
2021/05/18 00:44:11;;;;;;;7.75;4.07;;;13.80;74.50;;;;;;5072175;28;20059;-60
2021/05/18 00:46:37;;;;;;;8.25;4.85;;;13.90;74.70;;;;;;5072829;28;20033;-59
2021/05/18 00:49:04;;;;;;;6.55;3.53;;;13.70;74.70;;;;;;5072720;28;20029;-60
2021/05/18 00:51:39;;;;;;;9.13;4.30;;;13.80;74.80;;;;;;5070967;28;20438;-59
2021/05/18 00:54:08;;;;;;;8.70;4.03;;;13.80;74.80;;;;;;5072468;28;20071;-60
2021/05/18 00:59:06;;;;;;;6.53;4.10;;;13.70;74.90;;;;;;5072570;28;20032;-60
2021/05/18 01:01:33;;;;;;;6.57;3.55;;;13.70;75.00;;;;;;5072786;28;20059;-60
2021/05/18 01:04:01;;;;;;;8.55;4.28;;;13.70;75.00;;;;;;5072368;28;20029;-59
2021/05/18 01:06:30;;;;;;;7.53;3.75;;;13.70;75.10;;;;;;5059289;28;20029;-60
2021/05/18 01:09:08;;;;;;;7.18;3.97;;;13.70;75.10;;;;;;5072246;28;20040;-60
2021/05/18 01:11:35;;;;;;;6.15;3.40;;;13.60;75.20;;;;;;5072085;28;20487;-59
2021/05/18 01:14:06;;;;;;;9.18;3.78;;;13.60;75.20;;;;;;5072433;28;20033;-60
2021/05/18 01:16:35;;;;;;;11.95;3.85;;;13.60;75.40;;;;;;5072294;28;20039;-60
2021/05/18 01:19:02;;;;;;;7.93;4.07;;;13.60;75.40;;;;;;5072135;28;20108;-60
2021/05/18 01:21:27;;;;;;;8.60;4.05;;;13.50;75.40;;;;;;5072420;28;20041;-59
2021/05/18 01:23:54;;;;;;;7.97;2.70;;;13.60;75.60;;;;;;5072180;28;20085;-59
2021/05/18 01:26:21;;;;;;;4.35;2.67;;;13.50;75.50;;;;;;5071922;28;20039;-60
2021/05/18 01:28:47;;;;;;;2.72;1.95;;;13.50;75.50;;;;;;5070993;28;20487;-60
2021/05/18 01:31:24;;;;;;;4.95;2.97;;;13.50;75.60;;;;;;5070963;28;20055;-59
2021/05/18 01:33:52;;;;;;;4.35;2.28;;;13.40;75.70;;;;;;5070413;28;20031;-60
2021/05/18 01:36:21;;;;;;;5.70;2.72;;;13.40;76.00;;;;;;5072215;28;20028;-60
2021/05/18 01:39:25;;;;;;;3.72;1.92;;;13.40;76.10;;;;;;5056090;28;20032;-60
2021/05/18 01:44:37;;;;;;;4.57;2.58;;;13.30;76.40;;;;;;5060611;28;20078;-60
2021/05/18 01:47:05;;;;;;;3.72;2.38;;;13.30;76.50;;;;;;5071575;28;20460;-59
2021/05/18 01:49:38;;;;;;;7.97;3.45;;;13.30;76.60;;;;;;5070956;28;20414;-59
2021/05/18 01:52:07;;;;;;;5.80;3.03;;;13.20;76.60;;;;;;5070874;28;20812;-59
2021/05/18 01:54:34;;;;;;;5.18;2.08;;;13.30;76.70;;;;;;5053336;28;20024;-60
2021/05/18 01:59:35;;;;;;;5.53;3.42;;;13.20;76.80;;;;;;5070633;28;20025;-60
2021/05/18 02:02:09;;;;;;;7.22;4.07;;;13.20;76.80;;;;;;5070773;28;20048;-59
2021/05/18 02:04:48;;;;;;;6.97;4.28;;;13.20;76.80;;;;;;5070412;28;20031;-59
2021/05/18 02:07:29;;;;;;;8.70;3.42;;;13.30;77.00;;;;;;5070325;28;20021;-59
2021/05/18 02:09:55;;;;;;;4.47;2.00;;;13.30;76.90;;;;;;5057344;28;20484;-60
2021/05/18 02:12:21;;;;;;;0.63;0.63;;;13.30;76.90;;;;;;5070595;28;20029;-60
2021/05/18 02:14:53;;;;;;;3.20;2.13;;;13.20;76.80;;;;;;5069830;28;20064;-59
2021/05/18 02:17:44;;;;;;;;;;;13.20;76.90;;;;;;5072549;28;20396;-60
2021/05/18 02:20:40;;;;;;;7.60;4.10;;;13.20;76.80;;;;;;5070343;28;19923;-59
2021/05/18 02:26:10;;;;;;;5.88;3.80;;;13.10;77.00;;;;;;5070994;28;20032;-62
2021/05/18 02:28:44;;;;;;;5.40;2.70;;;13.10;77.20;;;;;;5072808;28;20073;-63
2021/05/18 02:31:11;;;;;;;5.68;3.13;;;13.00;77.10;;;;;;5075050;28;20068;-60
2021/05/18 02:33:39;;;;;;;3.28;2.13;;;13.00;77.20;;;;;;5065902;28;20389;-59
2021/05/18 02:36:08;;;;;;;3.13;1.95;;;13.00;77.20;;;;;;5060759;28;20108;-60
2021/05/18 02:38:35;;;;;;;5.70;2.95;;;13.00;77.20;;;;;;5064873;28;20055;-60
2021/05/18 02:41:08;;;;;;;1.17;0.93;;;13.00;77.10;;;;;;5072285;28;20086;-60
2021/05/18 02:43:44;;;;;;;4.07;2.83;;;13.00;77.10;;;;;;5072812;28;20476;-60
2021/05/18 02:49:04;;;;;;;5.28;3.33;;;12.90;77.10;;;;;;5075244;28;20036;-60
2021/05/18 02:49:09;;;;;;;3.03;2.13;;;12.90;77.00;;;;;;5072937;28;20025;-60
2021/05/18 02:51:42;;;;;;;6.32;2.90;;;13.00;77.00;;;;;;5073688;28;20499;-60
2021/05/18 02:54:10;;;;;;;7.53;3.22;;;12.90;77.00;;;;;;5073373;28;20380;-60
2021/05/18 02:56:48;;;;;;;2.35;1.65;;;12.90;76.90;;;;;;5074444;28;20029;-60
2021/05/18 02:59:19;;;;;;;5.63;2.85;;;12.90;76.90;;;;;;5074672;28;20150;-60
2021/05/18 03:01:48;;;;;;;6.20;3.30;;;12.90;76.90;;;;;;5074403;28;20068;-60
2021/05/18 03:04:14;;;;;;;7.50;3.70;;;12.90;77.00;;;;;;5074033;28;20025;-60
2021/05/18 03:06:41;;;;;;;5.75;3.05;;;12.90;76.90;;;;;;5074691;28;20033;-59
2021/05/18 03:09:11;;;;;;;5.40;3.47;;;12.80;76.80;;;;;;5072971;28;20392;-60
2021/05/18 03:11:39;;;;;;;6.35;4.03;;;12.80;76.70;;;;;;5073676;28;20028;-59
2021/05/18 03:14:06;;;;;;;10.50;4.03;;;12.80;76.60;;;;;;5071880;28;20047;-60
2021/05/18 03:16:33;;;;;;;7.22;4.63;;;12.80;76.50;;;;;;5060758;28;20021;-59
2021/05/18 03:18:59;;;;;;;6.82;3.90;;;12.80;76.50;;;;;;5055757;28;20029;-60
2021/05/18 03:21:24;;;;;;;6.45;3.58;;;12.90;76.40;;;;;;5056742;28;20037;-60
2021/05/18 03:23:50;;;;;;;3.72;2.70;;;12.80;76.20;;;;;;5055330;28;20025;-60
2021/05/18 03:26:16;;;;;;;8.93;4.43;;;12.80;76.10;;;;;;5054349;28;20071;-60
2021/05/18 03:28:42;;;;;;;11.98;4.72;;;12.80;76.10;;;;;;5054516;28;20028;-60
2021/05/18 03:36:36;;;;;;;5.82;2.97;;;12.70;75.90;;;;;;5059914;28;20056;-60
2021/05/18 03:39:03;;;;;;;7.28;3.90;;;12.70;75.80;;;;;;5055294;28;20045;-59
2021/05/18 03:41:31;;;;;;;6.22;2.97;;;12.70;75.80;;;;;;5064112;28;20480;-60
2021/05/18 03:44:18;;;;;;;9.63;4.22;;;12.70;75.80;;;;;;5073050;28;20029;-60
2021/05/18 04:18:48;;;;;;;6.40;4.10;;;12.20;75.50;;;;;;5063978;28;20024;-60
2021/05/18 04:21:29;;;;;;;7.70;4.30;;;12.20;75.60;;;;;;5063579;28;20446;-60
2021/05/18 04:38:36;;;;;;;5.07;2.63;;;12.10;75.80;;;;;;5065810;28;20403;-60
2021/05/18 04:59:48;;;;;;;8.48;3.92;;;12.00;75.90;;;;;;5060924;28;20605;-59
2021/05/18 05:08:05;;;;;;;8.27;4.82;;;12.00;75.90;;;;;;5072486;28;19915;-60
2021/05/18 05:16:07;;;;;;;8.13;4.32;;;11.90;76.30;;;;;;5068408;28;20255;-61
2021/05/18 05:18:33;;;;;;;5.35;2.95;;;11.90;77.30;;;;;;5067919;28;20048;-60
2021/05/18 05:20:58;;;;;;;9.77;4.65;;;11.90;76.70;;;;;;5064663;28;20135;-60
2021/05/18 05:23:24;;;;;;;9.43;4.72;;;11.90;76.90;;;;;;5069157;28;20021;-61
2021/05/18 05:25:50;;;;;;;5.15;3.08;;;11.90;77.20;;;;;;5060489;28;20035;-60
2021/05/18 05:28:15;;;;;;;4.47;2.67;;;11.90;77.00;;;;;;5066493;28;20381;-61
2021/05/18 05:30:41;;;;;;;4.07;2.50;;;12.00;77.00;;;;;;5062422;28;20073;-61
2021/05/18 05:33:07;;;;;;;2.10;1.17;;;12.00;77.00;;;;;;5071054;28;20024;-60
2021/05/18 05:35:32;;;;;;;4.85;3.08;;;12.00;77.00;;;;;;5071106;28;20036;-61
2021/05/18 05:37:58;;;;;;;2.85;1.77;;;12.00;77.40;;;;;;5070716;28;20029;-60
2021/05/18 05:40:24;;;;;;;4.07;2.78;;;12.00;77.60;;;;;;5068047;28;20044;-60
2021/05/18 05:42:50;;;;;;;5.45;3.30;;;12.00;77.70;;;;;;5070196;28;20119;-60
2021/05/18 05:45:15;;;;;;;5.82;3.20;;;11.90;78.00;;;;;;5071460;28;20116;-60
2021/05/18 05:47:41;;;;;;;4.28;2.17;;;11.90;78.00;;;;;;5067114;28;20016;-60
2021/05/18 05:50:09;;;;;;;2.25;1.55;;;12.00;78.20;;;;;;5071631;28;20060;-60
2021/05/18 05:52:35;;;;;;;5.63;3.35;;;12.00;78.20;;;;;;5054577;28;20060;-60
2021/05/18 05:55:02;;;;;;;16.67;2.22;;;12.10;78.50;;;;;;5060628;28;20072;-60
2021/05/18 05:57:27;;;;;;;6.13;3.08;;;12.10;78.40;;;;;;5052920;28;20025;-60
2021/05/18 05:59:53;;;;;;;6.88;4.43;;;12.10;78.60;;;;;;5061271;28;20029;-60
2021/05/18 06:02:19;;;;;;;6.60;4.05;;;12.10;79.10;;;;;;5058980;28;20041;-60
2021/05/18 06:04:44;;;;;;;7.10;4.43;;;12.10;79.00;;;;;;5055169;28;20039;-60
2021/05/18 06:07:10;;;;;;;3.60;2.28;;;12.20;79.20;;;;;;5056997;28;20110;-59
2021/05/18 06:09:37;;;;;;;2.10;1.73;;;12.30;78.60;;;;;;5062501;28;20025;-60
2021/05/18 06:14:50;;;;;;;6.65;3.45;;;12.30;78.60;;;;;;5071152;28;20040;-60
2021/05/18 06:42:04;;;;;;;4.57;2.75;;;12.60;78.90;;;;;;5055692;28;20037;-60
2021/05/18 06:47:30;;;;;;;8.93;4.68;;;12.70;78.60;;;;;;5057314;28;20040;-60
2021/05/18 06:50:28;;;;;;;1.85;1.23;;;12.70;79.30;;;;;;5053789;28;20053;-60
2021/05/18 06:52:47;;;;;;;5.38;3.13;;;12.70;78.50;;;;;;5059901;28;20472;-61
2021/05/18 06:55:17;;;;;;;4.53;2.75;;;12.80;78.70;;;;;;5064630;28;20021;-60
2021/05/18 06:57:51;;;;;;;8.38;3.10;;;12.80;79.00;;;;;;5071321;28;20041;-61
2021/05/18 07:00:21;;;;;;;6.10;2.83;;;12.90;78.70;;;;;;5068062;28;20492;-61
2021/05/18 07:02:49;;;;;;;5.35;3.20;;;13.00;78.60;;;;;;5064596;28;20076;-60
2021/05/18 07:06:05;;;;;;;5.47;3.13;;;13.00;78.30;;;;;;5055391;28;20029;-60
2021/05/18 07:10:31;;;;;;;2.65;1.20;;;13.10;78.00;;;;;;5073658;28;20028;-60
2021/05/18 07:12:56;;;;;;;5.45;2.45;;;13.20;77.70;;;;;;5072984;28;20119;-61
2021/05/18 07:15:27;;;;;;;5.63;3.50;;;13.20;77.80;;;;;;5066305;28;20033;-60
2021/05/18 07:17:53;;;;;;;7.13;2.90;;;13.20;77.80;;;;;;5071343;28;20504;-60
2021/05/18 07:20:20;;;;;;;6.80;3.67;;;13.20;77.80;;;;;;5073574;28;20128;-60
2021/05/18 07:22:47;;;;;;;6.13;3.08;;;13.30;77.90;;;;;;5071649;28;20052;-60
2021/05/18 07:25:13;;;;;;;5.30;2.72;;;13.30;77.70;;;;;;5072389;28;20107;-61
2021/05/18 07:27:38;;;;;;;4.88;2.42;;;13.40;77.70;;;;;;5073109;28;20032;-61
2021/05/18 07:30:05;;;;;;;3.03;1.83;;;13.40;77.50;;;;;;5073726;28;20032;-60
2021/05/18 07:32:34;;;;;;;4.93;3.45;;;13.40;77.40;;;;;;5073349;28;20085;-61
2021/05/18 07:34:59;;;;;;;4.63;2.90;;;13.50;77.30;;;;;;5073407;28;20040;-60
2021/05/18 07:37:26;;;;;;;6.03;3.53;;;13.50;77.30;;;;;;5072817;28;20040;-60
2021/05/18 07:39:52;;;;;;;4.63;2.28;;;13.50;77.30;;;;;;5073421;28;20537;-61
2021/05/18 07:42:17;;;;;;;4.43;2.55;;;13.50;77.30;;;;;;5071089;28;20044;-61
2021/05/18 07:44:44;;;;;;;2.00;1.33;;;13.50;77.40;;;;;;5060668;28;20091;-61
2021/05/18 07:47:12;;;;;;;4.22;2.72;;;13.60;77.50;;;;;;5065071;28;20108;-61
2021/05/18 07:49:42;;;;;;;7.63;3.10;;;13.60;77.50;;;;;;5073222;28;20021;-61
2021/05/18 08:00:52;;;;;;;7.50;3.15;;;13.80;77.10;;;;;;5067158;28;20040;-62
2021/05/18 08:05:54;;;;;;;2.50;1.38;;;13.80;77.10;;;;;;5064401;28;20035;-60
2021/05/18 08:08:20;;;;;;;4.82;3.40;;;13.90;77.10;;;;;;5066159;28;20028;-60
2021/05/18 08:10:58;;;;;;;7.45;3.92;;;13.90;77.30;;;;;;5062539;28;20060;-60
2021/05/18 08:13:24;;;;;;;6.78;3.33;;;13.90;77.30;;;;;;5065881;28;20032;-60
2021/05/18 10:35:36;;;;;;;5.43;2.80;;;15.30;77.70;;;;;;5074212;28;20112;-61
2021/05/18 10:38:06;;;;;;;7.18;2.97;;;15.30;77.00;;;;;;5073919;28;20028;-60
2021/05/18 10:40:37;;;;;;;5.30;2.60;;;15.40;76.70;;;;;;5073923;28;20052;-61
2021/05/18 10:43:18;;;;;;;5.13;2.80;;;15.40;76.40;;;;;;5074531;28;20032;-60
2021/05/18 10:46:07;;;;;;;4.30;2.72;;;15.50;76.10;;;;;;5071241;28;20565;-60
2021/05/18 10:48:36;;;;;;;3.75;2.55;;;15.50;76.10;;;;;;5058548;28;20394;-60
2021/05/18 10:51:43;;;;;;;5.70;3.00;;;15.50;75.20;;;;;;5064780;28;20056;-61
2021/05/18 10:54:19;;;;;;;4.80;2.92;;;15.60;75.00;;;;;;5053965;28;20036;-60
2021/05/18 10:56:54;;;;;;;8.68;2.60;;;15.60;75.10;;;;;;5070115;28;20043;-61
2021/05/18 10:59:23;;;;;;;4.38;2.88;;;15.60;74.60;;;;;;5071883;28;20029;-61
2021/05/18 11:01:55;;;;;;;5.53;2.50;;;15.60;74.40;;;;;;5065319;28;20064;-60
2021/05/18 11:04:24;;;;;;;5.78;2.67;;;15.60;74.50;;;;;;5072710;28;20035;-60
2021/05/18 11:06:54;;;;;;;4.13;2.63;;;15.60;74.90;;;;;;5069960;28;20036;-61
2021/05/18 11:09:21;;;;;;;5.13;2.55;;;15.60;75.10;;;;;;5070495;28;20485;-61
2021/05/18 11:11:59;;;;;;;3.75;2.55;;;15.60;74.90;;;;;;5073014;28;20044;-61
2021/05/18 11:14:36;;;;;;;3.88;2.47;;;15.60;75.00;;;;;;5066581;28;20035;-63
2021/05/18 11:17:13;;;;;;;7.03;3.17;;;15.60;74.90;;;;;;5061486;28;20037;-64
2021/05/18 11:19:49;;;;;;;5.75;2.78;;;15.60;75.10;;;;;;5071437;28;20372;-64
2021/05/18 11:22:18;;;;;;;5.45;3.40;;;15.60;75.50;;;;;;5064300;28;20116;-64
2021/05/18 11:24:48;;;;;;;4.57;3.03;;;15.60;76.00;;;;;;5066349;28;20472;-64
2021/05/18 11:27:25;;;;;;;4.28;2.80;;;15.70;76.70;;;;;;5064849;28;20064;-64
2021/05/18 11:29:51;;;;;;;7.03;3.45;;;15.70;75.70;;;;;;5066011;28;20028;-64
2021/05/18 11:32:16;;;;;;;5.65;3.70;;;15.70;75.50;;;;;;5065290;28;20028;-64
2021/05/18 11:35:02;;;;;;;6.07;3.58;;;15.80;75.40;;;;;;5064641;28;20032;-64
2021/05/18 11:37:29;;;;;;;5.40;3.25;;;15.80;75.00;;;;;;5064463;28;20033;-64
2021/05/18 11:40:17;;;;;;;7.72;3.20;;;15.90;74.30;;;;;;5066775;28;20017;-64
2021/05/18 11:42:44;;;;;;;4.30;2.33;;;15.90;74.30;;;;;;5072267;28;20499;-64
2021/05/18 11:45:17;;;;;;;4.00;2.95;;;15.90;74.20;;;;;;5067010;28;20043;-65
2021/05/18 11:47:45;;;;;;;4.95;2.95;;;16.00;74.00;;;;;;5068435;28;20105;-64
2021/05/18 11:50:26;;;;;;;4.50;2.70;;;16.00;73.70;;;;;;5072740;28;20492;-64
2021/05/18 11:52:54;;;;;;;3.55;2.70;;;16.00;73.60;;;;;;5064970;28;20036;-64
2021/05/18 11:55:24;;;;;;;4.50;2.47;;;16.00;74.10;;;;;;5069486;28;20035;-64
2021/05/18 11:57:52;;;;;;;4.22;2.38;;;16.00;73.90;;;;;;5071946;28;20036;-64
2021/05/18 12:00:34;;;;;;;4.32;3.10;;;16.10;73.70;;;;;;5064443;28;20420;-64
2021/05/18 12:03:08;;;;;;;6.55;3.15;;;16.10;72.80;;;;;;5055415;28;20088;-64
2021/05/18 12:05:34;;;;;;;;;;;16.10;72.30;;;;;;5066655;28;20033;-64
2021/05/18 12:08:00;;;;;;;7.28;2.10;;;16.10;72.40;;;;;;5065170;28;19912;-64
2021/05/18 12:10:31;;;;;;;5.10;2.60;;;16.20;72.10;;;;;;5065520;28;20501;-64
2021/05/18 12:12:57;;;;;;;5.68;3.30;;;16.20;72.40;;;;;;5071418;28;20399;-65
2021/05/18 12:15:23;;;;;;;11.55;2.95;;;16.20;72.60;;;;;;5064162;28;20383;-64
2021/05/18 12:17:53;;;;;;;4.28;2.95;;;16.20;71.90;;;;;;5069334;28;20040;-61
2021/05/18 12:20:19;;;;;;;5.50;3.10;;;16.20;72.80;;;;;;5052374;28;20912;-61
2021/05/18 12:22:47;;;;;;;4.47;2.65;;;16.30;72.70;;;;;;5053639;28;20025;-61
2021/05/18 12:25:28;;;;;;;6.30;3.15;;;16.30;72.30;;;;;;5052914;28;20044;-61
2021/05/18 12:27:54;;;;;;;5.85;2.65;;;16.40;72.30;;;;;;5053048;28;20043;-62
2021/05/18 12:30:32;;;;;;;6.75;2.30;;;16.40;72.40;;;;;;5053444;28;20032;-62
2021/05/18 12:32:58;;;;;;;3.65;2.28;;;16.40;72.60;;;;;;5067333;28;20932;-63
2021/05/18 12:35:26;;;;;;;4.93;2.90;;;16.50;72.50;;;;;;5065115;28;20111;-63
2021/05/18 12:37:53;;;;;;;3.08;2.03;;;16.50;71.90;;;;;;5063190;28;20033;-63
2021/05/18 12:40:19;;;;;;;7.20;3.22;;;16.60;72.50;;;;;;5067394;28;20260;-64
2021/05/18 12:42:47;;;;;;;5.05;2.58;;;16.60;71.70;;;;;;5056939;28;20025;-63
2021/05/18 12:45:16;;;;;;;7.68;3.20;;;16.70;70.50;;;;;;5071336;28;20029;-64
2021/05/18 12:47:43;;;;;;;4.93;3.47;;;16.70;71.00;;;;;;5064356;28;20028;-64
2021/05/18 12:50:12;;;;;;;6.32;3.45;;;16.70;71.60;;;;;;5071780;28;20048;-64
2021/05/18 12:52:40;;;;;;;4.35;3.22;;;16.80;71.80;;;;;;5072060;28;20056;-65
2021/05/18 12:55:30;;;;;;;4.97;3.10;;;16.80;71.60;;;;;;5071328;28;20025;-63
2021/05/18 12:58:07;;;;;;;4.93;3.33;;;16.90;71.90;;;;;;5071858;28;20112;-64
2021/05/18 13:00:40;;;;;;;5.85;3.70;;;16.90;72.80;;;;;;5063172;28;20044;-64
2021/05/18 13:03:13;;;;;;;;;;;17.00;72.10;;;;;;5059877;28;20061;-64
2021/05/18 13:05:44;;;;;;;6.63;4.03;;;17.00;72.50;;;;;;5066186;28;19908;-63
2021/05/18 13:08:19;;;;;;;6.68;3.88;;;17.10;71.50;;;;;;5069044;28;20039;-66
2021/05/18 13:13:23;;;;;;;8.25;3.17;;;17.20;71.30;;;;;;5051074;28;20033;-65
2021/05/18 13:15:50;;;;;;;5.30;3.35;;;17.30;72.50;;;;;;5054136;28;20013;-61
2021/05/18 13:18:16;;;;;;;6.40;3.28;;;17.30;72.90;;;;;;5050062;28;20021;-64
2021/05/18 13:20:51;;;;;;;5.90;2.90;;;17.30;72.90;;;;;;5056519;28;20045;-64
2021/05/18 13:28:38;;;;;;;6.00;3.20;;;17.50;72.70;;;;;;5061280;28;20431;-62
2021/05/18 13:31:04;;;;;;;5.53;3.00;;;17.60;71.80;;;;;;5062015;28;20032;-62
2021/05/18 13:33:30;;;;;;;4.13;2.55;;;17.60;69.90;;;;;;5061892;28;20039;-62
2021/05/18 13:35:56;;;;;;;9.00;2.88;;;17.60;69.40;;;;;;5061966;28;20033;-62
2021/05/18 13:38:22;;;;;;;7.28;2.40;;;17.70;71.20;;;;;;5064172;28;20112;-62
2021/05/18 13:40:49;;;;;;;4.78;2.55;;;17.70;70.90;;;;;;5062435;28;20447;-62
2021/05/18 13:43:15;;;;;;;5.85;3.25;;;17.80;70.20;;;;;;5060707;28;20024;-62
2021/05/18 13:45:41;;;;;;;6.32;3.40;;;17.80;69.30;;;;;;5062773;28;20047;-62
2021/05/18 13:48:07;;;;;;;5.93;3.13;;;17.80;70.10;;;;;;5061877;28;20377;-62
2021/05/18 13:50:34;;;;;;;5.57;3.40;;;17.90;70.60;;;;;;5057822;28;20094;-62
2021/05/18 13:53:00;;;;;;;5.95;3.40;;;17.90;67.20;;;;;;5062446;28;20048;-62
2021/05/18 13:55:26;;;;;;;6.05;3.35;;;17.90;68.10;;;;;;5062260;28;20707;-62
2021/05/18 13:57:52;;;;;;;5.85;3.47;;;18.00;68.50;;;;;;5061669;28;20039;-62
2021/05/18 14:00:19;;;;;;;6.65;3.90;;;18.10;69.50;;;;;;5054320;28;20029;-62
2021/05/18 14:02:47;;;;;;;6.95;3.83;;;18.10;68.00;;;;;;5050111;28;20049;-62
2021/05/18 14:05:17;;;;;;;7.10;4.05;;;18.10;68.60;;;;;;5051957;28;20107;-62
2021/05/18 14:08:03;;;;;;;5.70;3.30;;;18.20;67.10;;;;;;5053960;28;20043;-62
2021/05/18 14:10:39;;;;;;;7.03;3.95;;;18.20;67.30;;;;;;5054725;28;20029;-62
2021/05/18 14:13:04;;;;;;;5.38;2.78;;;18.30;68.00;;;;;;5051675;28;20043;-62
2021/05/18 14:15:30;;;;;;;7.10;3.58;;;18.30;68.40;;;;;;5050548;28;20502;-62
2021/05/18 14:17:56;;;;;;;8.18;3.60;;;18.30;68.40;;;;;;5053177;28;20495;-62
2021/05/18 14:20:21;;;;;;;4.63;3.35;;;18.30;69.10;;;;;;5053701;28;20025;-62
2021/05/18 14:22:47;;;;;;;7.90;3.95;;;18.30;67.90;;;;;;5057808;28;20434;-62
2021/05/18 14:25:13;;;;;;;4.43;2.97;;;18.30;66.40;;;;;;5057743;28;20483;-62
2021/05/18 14:27:39;;;;;;;5.78;3.75;;;18.40;68.50;;;;;;5055263;28;20021;-62
2021/05/18 14:30:09;;;;;;;6.45;4.00;;;18.40;67.00;;;;;;5055025;28;20071;-62
2021/05/18 14:32:36;;;;;;;7.00;3.72;;;18.50;65.90;;;;;;5054011;28;20033;-62
2021/05/18 14:35:04;;;;;;;6.30;3.80;;;18.60;65.70;;;;;;5054035;28;20040;-62
2021/05/18 14:37:29;;;;;;;4.97;3.00;;;18.60;68.00;;;;;;5053542;28;20377;-68
2021/05/18 14:40:06;;;;;;;5.65;3.17;;;18.70;67.30;;;;;;5060544;28;20039;-61
2021/05/18 14:45:18;;;;;;;9.98;3.30;;;18.70;69.90;;;;;;5060270;28;20111;-71
2021/05/18 14:55:39;;;;;;;4.75;3.03;;;18.90;67.00;;;;;;5072306;28;20036;-62
2021/05/18 14:58:05;;;;;;;7.22;3.22;;;18.90;65.80;;;;;;5058269;28;20469;-61
2021/05/18 15:00:30;;;;;;;5.30;2.80;;;18.90;64.60;;;;;;5058294;28;20037;-61
2021/05/18 15:02:57;;;;;;;4.65;2.80;;;19.00;65.70;;;;;;5064104;28;20041;-61
2021/05/18 15:05:25;;;;;;;5.75;3.10;;;18.90;65.80;;;;;;5057429;28;20029;-61
2021/05/18 15:07:50;;;;;;;5.00;3.10;;;19.00;65.20;;;;;;5060688;28;20115;-62
2021/05/18 15:10:16;;;;;;;5.40;3.40;;;19.00;65.00;;;;;;5057577;28;20144;-61
2021/05/18 15:12:42;;;;;;;5.88;3.65;;;19.00;65.90;;;;;;5069338;28;20119;-62
2021/05/18 15:15:08;;;;;;;6.82;3.35;;;19.00;66.70;;;;;;5063906;28;20903;-62
2021/05/18 15:17:34;;;;;;;6.70;3.50;;;19.10;62.60;;;;;;5064541;28;20040;-62
2021/05/18 15:20:00;;;;;;;6.90;3.33;;;19.20;64.00;;;;;;5063641;28;20387;-61
2021/05/18 15:22:31;;;;;;;8.98;3.20;;;19.30;64.60;;;;;;5058940;28;20484;-62
2021/05/18 15:24:56;;;;;;;6.18;3.72;;;19.30;65.50;;;;;;5059503;28;20035;-62
2021/05/18 15:27:25;;;;;;;5.05;3.38;;;19.40;65.00;;;;;;5059350;28;20037;-61
2021/05/18 15:29:51;;;;;;;4.93;3.08;;;19.40;65.60;;;;;;5065403;28;20036;-61
2021/05/18 15:32:17;;;;;;;5.28;3.72;;;19.40;65.20;;;;;;5072341;28;20074;-61
2021/05/18 15:34:43;;;;;;;6.15;3.67;;;19.40;64.40;;;;;;5060589;28;20123;-61
2021/05/18 15:37:09;;;;;;;7.10;3.78;;;19.50;66.00;;;;;;5055468;28;20048;-61
2021/05/18 15:39:37;;;;;;;4.88;3.20;;;19.60;65.10;;;;;;5057785;28;20465;-62
2021/05/18 15:42:04;;;;;;;6.68;3.55;;;19.70;65.60;;;;;;5058338;28;20036;-61
2021/05/18 15:44:29;;;;;;;5.13;3.05;;;19.70;66.00;;;;;;5056965;28;20040;-62
2021/05/18 15:46:55;;;;;;;4.80;2.88;;;19.80;65.10;;;;;;5060983;28;20048;-61
2021/05/18 15:49:24;;;;;;;5.75;2.97;;;19.80;64.10;;;;;;5071871;28;20048;-62
2021/05/18 15:51:49;;;;;;;5.00;3.03;;;19.70;63.20;;;;;;5072788;28;20068;-62
2021/05/18 15:54:15;;;;;;;5.25;2.85;;;19.70;61.90;;;;;;5072576;28;20063;-63
2021/05/18 15:56:41;;;;;;;4.82;3.08;;;19.70;61.60;;;;;;5070546;28;20082;-62
2021/05/18 15:59:06;;;;;;;4.57;3.05;;;19.60;61.80;;;;;;5055180;28;20020;-62
2021/05/18 16:01:32;;;;;;;4.72;2.88;;;19.60;62.30;;;;;;5072093;28;20432;-62
2021/05/18 16:03:58;;;;;;;4.82;2.88;;;19.50;62.20;;;;;;5068276;28;20044;-62
2021/05/18 16:06:23;;;;;;;5.70;3.22;;;19.50;64.60;;;;;;5072406;28;20029;-62
2021/05/18 16:11:15;;;;;;;5.88;2.97;;;19.50;63.60;;;;;;5067577;28;20031;-62
2021/05/18 16:13:41;;;;;;;8.32;3.00;;;19.50;63.50;;;;;;5066684;28;20455;-62
2021/05/18 16:16:13;;;;;;;5.10;3.00;;;19.50;63.80;;;;;;5058098;28;20396;-62
2021/05/18 16:18:39;;;;;;;5.32;3.28;;;19.50;64.20;;;;;;5062464;28;20418;-62
2021/05/18 16:21:09;;;;;;;7.07;3.97;;;19.60;63.00;;;;;;5059643;28;20033;-62
2021/05/18 16:23:38;;;;;;;5.05;2.88;;;19.60;61.40;;;;;;5065568;28;20035;-62
2021/05/18 16:26:05;;;;;;;4.78;3.03;;;19.60;62.20;;;;;;5068038;28;20033;-62
2021/05/18 16:28:31;;;;;;;6.57;3.45;;;19.60;63.00;;;;;;5069858;28;20055;-62
2021/05/18 16:30:58;;;;;;;5.82;3.30;;;19.70;63.10;;;;;;5067286;28;20395;-62
2021/05/18 16:33:24;;;;;;;5.20;3.10;;;19.70;63.80;;;;;;5066315;28;20388;-63
2021/05/18 16:35:51;;;;;;;5.10;3.10;;;19.60;63.30;;;;;;5066102;28;20267;-63
2021/05/18 16:38:17;;;;;;;4.38;3.00;;;19.60;64.10;;;;;;5069803;28;20028;-62
2021/05/18 16:40:43;;;;;;;4.50;3.10;;;19.70;67.50;;;;;;5071071;28;20404;-62
2021/05/18 16:43:08;;;;;;;5.22;2.88;;;19.80;66.70;;;;;;5071072;28;20044;-63
2021/05/18 16:45:35;;;;;;;6.03;3.22;;;19.90;67.30;;;;;;5056838;28;20028;-62
2021/05/18 16:48:03;;;;;;;5.75;3.30;;;20.00;64.60;;;;;;5062379;28;20391;-62
2021/05/18 16:50:30;;;;;;;3.92;2.72;;;20.00;65.30;;;;;;5059415;28;20075;-62
2021/05/18 16:52:56;;;;;;;5.55;3.17;;;20.10;65.70;;;;;;5055449;28;20163;-62
2021/05/18 16:55:21;;;;;;;4.97;3.35;;;20.20;66.40;;;;;;5051592;28;20104;-62
2021/05/18 16:57:47;;;;;;;8.43;2.65;;;20.30;64.70;;;;;;5061772;28;20182;-62
2021/05/18 17:00:14;;;;;;;4.65;2.95;;;20.40;65.60;;;;;;5070065;28;20040;-62
2021/05/18 17:02:39;;;;;;;6.00;3.72;;;20.40;63.60;;;;;;5069993;28;20040;-62
2021/05/18 17:05:07;;;;;;;4.35;2.85;;;20.40;63.20;;;;;;5066912;28;20073;-62
2021/05/18 17:07:34;;;;;;;7.35;2.95;;;20.60;65.60;;;;;;5070209;28;20024;-62
2021/05/18 17:10:00;;;;;;;5.93;2.75;;;20.70;66.00;;;;;;5069608;28;20472;-62
2021/05/18 17:12:25;;;;;;;4.90;2.80;;;20.80;65.50;;;;;;5070084;28;20027;-62
2021/05/18 17:14:51;;;;;;;7.05;3.25;;;20.90;63.70;;;;;;5069579;28;20021;-62
2021/05/18 17:17:20;;;;;;;4.75;2.40;;;20.90;63.30;;;;;;5062039;28;20025;-62
2021/05/18 17:19:46;;;;;;;4.75;2.63;;;20.90;63.90;;;;;;5070477;28;20031;-62
2021/05/18 17:22:14;;;;;;;5.82;3.28;;;21.00;64.40;;;;;;5062564;28;20545;-64
2021/05/18 17:24:41;;;;;;;4.82;2.60;;;21.00;61.90;;;;;;5063641;28;20035;-62
2021/05/18 17:27:07;;;;;;;4.95;2.67;;;21.10;62.60;;;;;;5052606;28;20067;-62
2021/05/18 17:29:33;;;;;;;7.03;2.85;;;21.10;62.10;;;;;;5061278;28;20104;-62
2021/05/18 17:32:00;;;;;;;4.63;2.58;;;21.20;61.10;;;;;;5063541;28;20058;-62
2021/05/18 17:34:26;;;;;;;7.40;2.70;;;21.20;60.00;;;;;;5060043;28;20032;-62
2021/05/18 17:36:52;;;;;;;4.30;2.88;;;21.20;59.20;;;;;;5065217;28;20032;-62
2021/05/18 17:39:19;;;;;;;4.18;2.60;;;21.20;59.30;;;;;;5061904;28;20083;-62
2021/05/18 17:41:45;;;;;;;6.57;2.70;;;21.20;60.40;;;;;;5060088;28;20032;-62
2021/05/18 17:44:11;;;;;;;3.72;2.63;;;21.20;59.30;;;;;;5065467;28;20490;-61
2021/05/18 17:46:37;;;;;;;6.95;3.28;;;21.30;59.20;;;;;;5063289;28;20021;-61
2021/05/18 17:49:04;;;;;;;7.40;3.20;;;21.30;58.30;;;;;;5066344;28;20020;-61
2021/05/18 17:51:33;;;;;;;6.50;2.70;;;21.30;57.50;;;;;;5060541;28;20043;-62
2021/05/18 17:54:01;;;;;;;3.85;2.58;;;21.30;56.90;;;;;;5068335;28;20054;-62
2021/05/18 17:56:27;;;;;;;5.15;2.75;;;21.30;56.50;;;;;;5070579;28;20123;-62